createdAt,value
2022-08-05T00:00:26.022Z,23.94
2022-08-05T00:01:27.613Z,23.90
2022-08-05T00:02:24.921Z,23.86
2022-08-05T00:03:24.826Z,23.86
2022-08-05T00:04:24.821Z,23.86
2022-08-05T00:06:02.844Z,23.82
2022-08-05T00:06:32.494Z,23.86
2022-08-05T00:08:00.465Z,23.77
2022-08-05T00:08:34.624Z,23.82
2022-08-05T00:09:24.787Z,23.79
2022-08-05T00:10:27.206Z,23.77
2022-08-05T00:11:34.437Z,23.74
2022-08-05T00:12:24.768Z,23.74
2022-08-05T00:13:38.516Z,23.71
2022-08-05T00:14:26.466Z,23.68
2022-08-05T00:15:55.779Z,23.69
2022-08-05T00:16:36.592Z,23.68
2022-08-05T00:17:25.841Z,23.68
2022-08-05T00:18:24.725Z,23.60
2022-08-05T00:19:33.241Z,23.60
2022-08-05T00:20:29.112Z,23.57
2022-08-05T00:21:25.198Z,23.60
2022-08-05T00:22:24.698Z,23.74
2022-08-05T00:23:31.026Z,23.59
2022-08-05T00:24:30.794Z,23.59
2022-08-05T00:25:24.677Z,23.59
2022-08-05T00:26:24.717Z,23.56
2022-08-05T00:27:35.685Z,23.64
2022-08-05T00:28:29.751Z,23.60
2022-08-05T00:29:25.488Z,23.50
2022-08-05T00:30:29.251Z,23.53
2022-08-05T00:31:53.737Z,23.56
2022-08-05T00:32:25.880Z,23.53
2022-08-05T00:34:53.308Z,23.49
2022-08-05T00:34:56.798Z,23.44
2022-08-05T00:35:24.595Z,23.37
2022-08-05T00:37:10.922Z,23.26
2022-08-05T00:37:24.698Z,23.29
2022-08-05T00:38:28.638Z,23.29
2022-08-05T00:39:24.946Z,23.32
2022-08-05T00:40:26.767Z,23.23
2022-08-05T00:41:24.578Z,23.15
2022-08-05T00:42:31.502Z,23.18
2022-08-05T00:43:24.539Z,23.18
2022-08-05T00:44:30.746Z,23.18
2022-08-05T00:45:28.327Z,23.26
2022-08-05T00:46:42.430Z,23.11
2022-08-05T00:47:24.508Z,23.04
2022-08-05T00:48:31.266Z,23.14
2022-08-05T00:49:24.493Z,23.12
2022-08-05T00:50:25.369Z,23.09
2022-08-05T00:51:50.433Z,23.09
2022-08-05T00:52:28.834Z,23.04
2022-08-05T00:53:45.114Z,22.96
2022-08-05T00:54:27.950Z,23.03
2022-08-05T00:55:42.420Z,23.00
2022-08-05T00:56:24.539Z,22.96
2022-08-05T00:57:24.465Z,22.86
2022-08-05T00:58:27.595Z,22.86
2022-08-05T00:59:24.411Z,22.88
2022-08-05T01:00:26.003Z,22.88
2022-08-05T01:01:42.205Z,22.85
2022-08-05T01:02:24.472Z,22.86
2022-08-05T01:03:24.380Z,22.84
2022-08-05T01:04:26.874Z,22.76
2022-08-05T01:05:24.371Z,22.89
2022-08-05T01:06:26.599Z,22.85
2022-08-05T01:07:31.419Z,22.86
2022-08-05T01:08:30.291Z,22.79
2022-08-05T01:09:24.341Z,22.89
2022-08-05T01:10:25.737Z,22.79
2022-08-05T01:11:33.461Z,22.88
2022-08-05T01:12:24.361Z,22.86
2022-08-05T01:13:27.595Z,22.86
2022-08-05T01:14:27.183Z,22.86
2022-08-05T01:15:35.421Z,22.81
2022-08-05T01:16:26.510Z,22.88
2022-08-05T01:17:24.803Z,22.85
2022-08-05T01:18:24.268Z,22.85
2022-08-05T01:19:36.582Z,22.86
2022-08-05T01:20:24.253Z,22.85
2022-08-05T01:21:24.248Z,22.85
2022-08-05T01:22:27.738Z,22.91
2022-08-05T01:23:24.284Z,22.91
2022-08-05T01:24:24.217Z,22.89
2022-08-05T01:25:24.275Z,22.93
2022-08-05T01:26:26.408Z,22.99
2022-08-05T01:27:24.195Z,23.00
2022-08-05T01:28:24.240Z,23.04
2022-08-05T01:29:24.186Z,23.01
2022-08-05T01:30:34.112Z,23.07
2022-08-05T01:31:24.167Z,23.06
2022-08-05T01:32:24.153Z,23.01
2022-08-05T01:33:25.301Z,23.07
2022-08-05T01:34:26.704Z,22.96
2022-08-05T01:35:50.837Z,23.09
2022-08-05T01:36:28.310Z,23.03
2022-08-05T01:37:24.982Z,23.04
2022-08-05T01:38:27.435Z,22.99
2022-08-05T01:39:45.884Z,22.97
2022-08-05T01:40:28.019Z,22.97
2022-08-05T01:41:25.657Z,23.04
2022-08-05T01:42:24.075Z,23.00
2022-08-05T01:43:24.274Z,23.06
2022-08-05T01:44:24.861Z,23.03
2022-08-05T01:45:24.054Z,23.11
2022-08-05T01:46:42.002Z,23.06
2022-08-05T01:47:24.259Z,22.97
2022-08-05T01:48:24.028Z,23.11
2022-08-05T01:49:24.962Z,23.01
2022-08-05T01:50:28.581Z,23.09
2022-08-05T01:51:24.009Z,23.12
2022-08-05T01:52:24.005Z,23.03
2022-08-05T01:53:58.126Z,23.00
2022-08-05T01:54:27.117Z,23.11
2022-08-05T01:55:24.328Z,23.15
2022-08-05T01:58:10.468Z,23.11
2022-08-05T01:58:12.869Z,23.07
2022-08-05T01:58:29.417Z,23.03
2022-08-05T01:59:23.951Z,23.04
2022-08-05T02:00:30.533Z,22.96
2022-08-05T02:01:24.749Z,23.06
2022-08-05T02:02:26.208Z,23.06
2022-08-05T02:03:29.196Z,23.12
2022-08-05T02:04:23.903Z,23.07
2022-08-05T02:05:24.049Z,23.06
2022-08-05T02:06:33.631Z,23.06
2022-08-05T02:07:24.162Z,23.09
2022-08-05T02:08:25.536Z,22.99
2022-08-05T02:09:23.871Z,23.00
2022-08-05T02:10:28.105Z,22.94
2022-08-05T02:11:24.110Z,22.99
2022-08-05T02:12:25.340Z,22.99
2022-08-05T02:13:23.840Z,23.00
2022-08-05T02:14:23.826Z,22.97
2022-08-05T02:15:24.122Z,22.91
2022-08-05T02:16:23.810Z,22.94
2022-08-05T02:18:27.457Z,22.88
2022-08-05T02:18:28.652Z,22.81
2022-08-05T02:19:23.791Z,22.86
2022-08-05T02:20:24.030Z,22.86
2022-08-05T02:21:23.769Z,22.91
2022-08-05T02:22:25.725Z,22.88
2022-08-05T02:23:23.753Z,22.89
2022-08-05T02:24:23.743Z,22.88
2022-08-05T02:25:23.942Z,22.89
2022-08-05T02:26:23.728Z,22.88
2022-08-05T02:27:30.123Z,22.79
2022-08-05T02:28:28.650Z,22.81
2022-08-05T02:29:26.009Z,22.88
2022-08-05T02:30:23.698Z,22.81
2022-08-05T02:31:23.811Z,22.79
2022-08-05T02:32:29.262Z,22.69
2022-08-05T02:33:24.442Z,22.74
2022-08-05T02:34:23.666Z,22.67
2022-08-05T02:35:28.321Z,22.72
2022-08-05T02:36:23.652Z,22.63
2022-08-05T02:37:23.931Z,22.70
2022-08-05T02:38:27.000Z,22.67
2022-08-05T02:39:23.647Z,22.66
2022-08-05T02:40:24.063Z,22.67
2022-08-05T02:41:23.616Z,22.63
2022-08-05T02:42:27.673Z,22.69
2022-08-05T02:43:23.699Z,22.67
2022-08-05T02:44:23.588Z,22.61
2022-08-05T02:45:23.973Z,22.63
2022-08-05T02:46:27.398Z,22.64
2022-08-05T02:47:23.849Z,22.57
2022-08-05T02:48:29.204Z,22.54
2022-08-05T02:49:23.552Z,22.52
2022-08-05T02:50:23.537Z,22.56
2022-08-05T02:51:28.255Z,22.52
2022-08-05T02:52:29.403Z,22.56
2022-08-05T02:53:23.520Z,22.48
2022-08-05T02:54:35.081Z,22.46
2022-08-05T02:55:53.700Z,22.56
2022-08-05T02:56:23.495Z,22.51
2022-08-05T02:58:11.079Z,22.44
2022-08-05T02:58:26.529Z,22.49
2022-08-05T02:59:27.072Z,22.45
2022-08-05T03:00:25.466Z,22.51
2022-08-05T03:01:23.497Z,22.46
2022-08-05T03:02:23.443Z,22.35
2022-08-05T03:03:23.766Z,22.38
2022-08-05T03:04:23.423Z,22.36
2022-08-05T03:06:54.727Z,22.38
2022-08-05T03:06:56.938Z,22.42
2022-08-05T03:07:48.492Z,22.45
2022-08-05T03:08:29.934Z,22.41
2022-08-05T03:09:36.281Z,22.46
2022-08-05T03:10:25.054Z,22.44
2022-08-05T03:11:55.382Z,22.48
2022-08-05T03:12:23.364Z,22.46
2022-08-05T03:13:27.611Z,22.46
2022-08-05T03:14:23.344Z,22.46
2022-08-05T03:15:24.134Z,22.45
2022-08-05T03:16:23.328Z,22.41
2022-08-05T03:17:23.661Z,22.45
2022-08-05T03:18:24.635Z,22.46
2022-08-05T03:19:33.853Z,22.41
2022-08-05T03:20:24.258Z,22.41
2022-08-05T03:21:23.297Z,22.38
2022-08-05T03:22:32.129Z,22.48
2022-08-05T03:23:24.151Z,22.36
2022-08-05T03:24:29.836Z,22.38
2022-08-05T03:26:03.429Z,22.36
2022-08-05T03:26:31.844Z,22.36
2022-08-05T03:27:23.336Z,22.36
2022-08-05T03:28:23.480Z,22.38
2022-08-05T03:29:23.223Z,22.27
2022-08-05T03:30:33.404Z,22.27
2022-08-05T03:31:55.665Z,22.31
2022-08-05T03:32:30.663Z,22.30
2022-08-05T03:33:23.442Z,22.19
2022-08-05T03:34:24.440Z,22.27
2022-08-05T03:35:23.173Z,22.31
2022-08-05T03:36:30.075Z,22.29
2022-08-05T03:37:23.451Z,22.33
2022-08-05T03:38:32.771Z,22.27
2022-08-05T03:39:27.157Z,22.33
2022-08-05T03:40:24.359Z,22.19
2022-08-05T03:41:23.668Z,22.19
2022-08-05T03:42:23.114Z,22.20
2022-08-05T03:44:09.870Z,22.23
2022-08-05T03:44:23.092Z,22.21
2022-08-05T03:45:23.592Z,22.23
2022-08-05T03:46:23.080Z,22.15
2022-08-05T03:47:23.277Z,22.23
2022-08-05T03:48:23.359Z,22.12
2022-08-05T03:49:24.200Z,22.21
2022-08-05T03:50:23.049Z,22.17
2022-08-05T03:52:38.779Z,22.12
2022-08-05T03:52:48.368Z,22.17
2022-08-05T03:55:51.934Z,22.17
2022-08-05T03:56:01.577Z,22.15
2022-08-05T03:56:04.724Z,22.14
2022-08-05T03:56:30.663Z,22.15
2022-08-05T03:57:41.161Z,22.19
2022-08-05T03:58:28.869Z,22.19
2022-08-05T03:59:22.967Z,22.20
2022-08-05T04:00:22.965Z,22.21
2022-08-05T04:01:22.998Z,22.17
2022-08-05T04:02:38.327Z,22.24
2022-08-05T04:03:28.620Z,22.31
2022-08-05T04:04:22.925Z,22.29
2022-08-05T04:05:22.986Z,22.26
2022-08-05T04:06:22.910Z,22.12
2022-08-05T04:07:24.900Z,22.20
2022-08-05T04:08:30.180Z,22.20
2022-08-05T04:09:26.621Z,22.17
2022-08-05T04:10:22.877Z,22.17
2022-08-05T04:11:22.867Z,22.19
2022-08-05T04:12:24.508Z,22.09
2022-08-05T04:13:23.150Z,22.19
2022-08-05T04:14:30.074Z,22.12
2022-08-05T04:15:24.444Z,22.19
2022-08-05T04:16:24.060Z,22.20
2022-08-05T04:17:22.998Z,22.17
2022-08-05T04:18:25.360Z,22.11
2022-08-05T04:19:23.390Z,22.20
2022-08-05T04:20:23.326Z,22.27
2022-08-05T04:22:08.589Z,22.20
2022-08-05T04:22:22.774Z,22.15
2022-08-05T04:23:57.376Z,22.27
2022-08-05T04:24:22.860Z,22.21
2022-08-05T04:25:24.210Z,22.27
2022-08-05T04:26:22.744Z,22.26
2022-08-05T04:27:42.138Z,22.24
2022-08-05T04:28:28.531Z,22.35
2022-08-05T04:29:22.716Z,22.33
2022-08-05T04:30:22.711Z,22.26
2022-08-05T04:31:22.703Z,22.27
2022-08-05T04:32:30.637Z,22.44
2022-08-05T04:34:18.181Z,22.29
2022-08-05T04:34:32.486Z,22.35
2022-08-05T04:35:22.668Z,22.30
2022-08-05T04:36:46.569Z,22.27
2022-08-05T04:38:00.567Z,22.33
2022-08-05T04:38:22.640Z,22.17
2022-08-05T04:39:22.674Z,22.29
2022-08-05T04:40:22.729Z,22.27
2022-08-05T04:41:22.620Z,22.23
2022-08-05T04:42:25.379Z,22.20
2022-08-05T04:43:22.606Z,22.20
2022-08-05T04:44:29.414Z,22.20
2022-08-05T04:45:47.912Z,22.20
2022-08-05T04:46:28.338Z,22.20
2022-08-05T04:47:22.750Z,22.14
2022-08-05T04:48:27.615Z,22.14
2022-08-05T04:49:24.739Z,22.11
2022-08-05T04:50:37.153Z,22.19
2022-08-05T04:51:23.128Z,22.20
2022-08-05T04:52:22.526Z,22.19
2022-08-05T04:53:22.521Z,22.11
2022-08-05T04:54:22.512Z,22.15
2022-08-05T04:56:14.428Z,22.08
2022-08-05T04:56:34.844Z,22.06
2022-08-05T04:57:22.882Z,22.11
2022-08-05T04:58:22.476Z,22.09
2022-08-05T04:59:24.315Z,22.02
2022-08-05T05:00:23.469Z,22.02
2022-08-05T05:01:33.568Z,22.09
2022-08-05T05:02:37.566Z,22.04
2022-08-05T05:03:22.736Z,22.02
2022-08-05T05:04:22.423Z,21.99
2022-08-05T05:05:28.216Z,22.02
2022-08-05T05:06:39.126Z,22.06
2022-08-05T05:07:23.954Z,22.01
2022-08-05T05:08:30.242Z,21.93
2022-08-05T05:09:22.481Z,21.94
2022-08-05T05:10:22.380Z,21.99
2022-08-05T05:11:22.360Z,21.90
2022-08-05T05:12:22.351Z,21.93
2022-08-05T05:13:22.351Z,21.86
2022-08-05T05:14:27.776Z,21.98
2022-08-05T05:15:59.533Z,21.90
2022-08-05T05:16:22.340Z,21.90
2022-08-05T05:17:24.526Z,22.01
2022-08-05T05:18:28.436Z,21.91
2022-08-05T05:19:26.531Z,21.91
2022-08-05T05:20:22.488Z,21.98
2022-08-05T05:21:22.279Z,21.96
2022-08-05T05:22:24.193Z,21.93
2022-08-05T05:23:22.263Z,21.93
2022-08-05T05:24:22.254Z,21.91
2022-08-05T05:25:22.348Z,21.91
2022-08-05T05:26:28.601Z,21.86
2022-08-05T05:27:22.378Z,21.89
2022-08-05T05:28:22.213Z,21.93
2022-08-05T05:29:22.227Z,21.89
2022-08-05T05:30:30.927Z,21.91
2022-08-05T05:31:22.198Z,21.90
2022-08-05T05:32:22.182Z,21.89
2022-08-05T05:33:23.492Z,21.90
2022-08-05T05:34:26.667Z,21.94
2022-08-05T05:35:22.205Z,21.98
2022-08-05T05:36:22.148Z,21.93
2022-08-05T05:37:22.410Z,21.90
2022-08-05T05:38:27.277Z,21.98
2022-08-05T05:39:22.176Z,21.98
2022-08-05T05:40:22.215Z,21.91
2022-08-05T05:41:22.109Z,21.94
2022-08-05T05:42:22.098Z,21.93
2022-08-05T05:43:54.645Z,21.89
2022-08-05T05:44:36.560Z,21.90
2022-08-05T05:45:22.426Z,21.91
2022-08-05T05:46:22.061Z,21.83
2022-08-05T05:47:22.369Z,21.83
2022-08-05T05:48:27.584Z,21.79
2022-08-05T05:49:22.413Z,21.77
2022-08-05T05:50:22.083Z,21.83
2022-08-05T05:51:22.029Z,21.82
2022-08-05T05:52:28.746Z,21.74
2022-08-05T05:53:22.894Z,21.79
2022-08-05T05:54:22.001Z,21.83
2022-08-05T05:55:22.184Z,21.74
2022-08-05T05:56:26.037Z,21.74
2022-08-05T05:57:22.061Z,21.77
2022-08-05T05:58:21.954Z,21.77
2022-08-05T05:59:21.949Z,21.77
2022-08-05T06:00:27.808Z,21.74
2022-08-05T06:01:23.336Z,21.77
2022-08-05T06:02:32.588Z,21.73
2022-08-05T06:03:40.079Z,21.71
2022-08-05T06:04:22.029Z,21.77
2022-08-05T06:05:22.103Z,21.63
2022-08-05T06:06:22.440Z,21.66
2022-08-05T06:07:22.505Z,21.64
2022-08-05T06:08:32.589Z,21.64
2022-08-05T06:09:35.340Z,21.70
2022-08-05T06:10:21.905Z,21.66
2022-08-05T06:11:21.842Z,21.64
2022-08-05T06:12:21.839Z,21.68
2022-08-05T06:13:21.827Z,21.67
2022-08-05T06:14:21.815Z,21.63
2022-08-05T06:15:24.277Z,21.71
2022-08-05T06:16:29.029Z,21.70
2022-08-05T06:17:24.671Z,21.66
2022-08-05T06:18:21.788Z,21.66
2022-08-05T06:19:26.181Z,21.70
2022-08-05T06:20:22.120Z,21.67
2022-08-05T06:21:21.760Z,21.63
2022-08-05T06:22:21.748Z,21.61
2022-08-05T06:23:21.742Z,21.64
2022-08-05T06:24:25.766Z,21.63
2022-08-05T06:25:58.964Z,21.68
2022-08-05T06:26:24.148Z,21.68
2022-08-05T06:28:12.552Z,21.67
2022-08-05T06:28:22.052Z,21.68
2022-08-05T06:29:43.135Z,21.68
2022-08-05T06:30:21.731Z,21.66
2022-08-05T06:31:22.488Z,21.64
2022-08-05T06:32:26.036Z,21.66
2022-08-05T06:34:02.972Z,21.56
2022-08-05T06:34:21.646Z,21.58
2022-08-05T06:36:03.963Z,21.58
2022-08-05T06:36:21.625Z,21.53
2022-08-05T06:37:55.818Z,21.51
2022-08-05T06:38:35.969Z,21.56
2022-08-05T06:39:21.695Z,21.52
2022-08-05T06:40:21.639Z,21.53
2022-08-05T06:41:21.577Z,21.53
2022-08-05T06:42:21.569Z,21.63
2022-08-05T06:43:58.190Z,21.63
2022-08-05T06:44:22.027Z,21.56
2022-08-05T06:45:44.673Z,21.63
2022-08-05T06:46:21.538Z,21.66
2022-08-05T06:48:11.472Z,21.71
2022-08-05T06:48:55.394Z,21.58
2022-08-05T06:49:21.550Z,21.58
2022-08-05T06:50:21.502Z,21.53
2022-08-05T06:51:23.844Z,21.61
2022-08-05T06:52:38.181Z,21.52
2022-08-05T06:53:27.937Z,21.49
2022-08-05T06:54:21.467Z,21.43
2022-08-05T06:55:21.455Z,21.43
2022-08-05T06:56:26.525Z,21.46
2022-08-05T06:58:03.751Z,21.38
2022-08-05T06:58:35.049Z,21.46
2022-08-05T06:59:21.418Z,21.42
2022-08-05T07:00:22.135Z,21.42
2022-08-05T07:01:21.481Z,21.42
2022-08-05T07:02:22.829Z,21.34
2022-08-05T07:03:21.384Z,21.42
2022-08-05T07:04:21.675Z,21.34
2022-08-05T07:05:23.453Z,21.31
2022-08-05T07:06:21.361Z,21.42
2022-08-05T07:07:35.283Z,21.31
2022-08-05T07:08:21.338Z,21.34
2022-08-05T07:09:21.327Z,21.40
2022-08-05T07:10:21.628Z,21.38
2022-08-05T07:11:21.983Z,21.45
2022-08-05T07:12:21.298Z,21.38
2022-08-05T07:13:37.200Z,21.42
2022-08-05T07:14:29.327Z,21.40
2022-08-05T07:15:34.495Z,21.40
2022-08-05T07:17:56.040Z,21.46
2022-08-05T07:18:00.754Z,21.43
2022-08-05T07:18:29.274Z,21.46
2022-08-05T07:19:44.221Z,21.43
2022-08-05T07:20:38.689Z,21.48
2022-08-05T07:21:25.766Z,21.37
2022-08-05T07:22:21.208Z,21.48
2022-08-05T07:23:26.372Z,21.42
2022-08-05T07:24:21.197Z,21.45
2022-08-05T07:25:22.695Z,21.42
2022-08-05T07:26:24.896Z,21.48
2022-08-05T07:27:21.557Z,21.42
2022-08-05T07:28:21.155Z,21.42
2022-08-05T07:29:21.145Z,21.38
2022-08-05T07:30:27.398Z,21.45
2022-08-05T07:31:40.870Z,21.51
2022-08-05T07:32:25.983Z,21.51
2022-08-05T07:33:21.113Z,21.48
2022-08-05T07:34:21.207Z,21.42
2022-08-05T07:36:04.782Z,21.53
2022-08-05T07:36:21.872Z,21.42
2022-08-05T07:37:21.074Z,21.40
2022-08-05T07:38:32.467Z,21.40
2022-08-05T07:39:24.718Z,21.40
2022-08-05T07:40:32.459Z,21.34
2022-08-05T07:42:14.526Z,21.37
2022-08-05T07:42:33.446Z,21.40
2022-08-05T07:43:21.272Z,21.34
2022-08-05T07:44:21.014Z,21.33
2022-08-05T07:45:56.616Z,21.26
2022-08-05T07:46:25.413Z,21.28
2022-08-05T07:47:21.055Z,21.26
2022-08-05T07:49:01.864Z,21.22
2022-08-05T07:49:20.972Z,21.30
2022-08-05T07:50:24.962Z,21.27
2022-08-05T07:51:23.839Z,21.22
2022-08-05T07:52:20.938Z,21.24
2022-08-05T07:53:20.932Z,21.24
2022-08-05T07:54:20.923Z,21.18
2022-08-05T07:55:44.208Z,21.21
2022-08-05T07:57:00.516Z,21.18
2022-08-05T07:57:52.275Z,21.16
2022-08-05T07:58:54.680Z,21.19
2022-08-05T07:59:21.901Z,21.33
2022-08-05T08:00:20.888Z,21.21
2022-08-05T08:01:22.182Z,21.24
2022-08-05T08:02:20.846Z,21.19
2022-08-05T08:03:21.611Z,21.18
2022-08-05T08:04:34.288Z,21.21
2022-08-05T08:05:20.819Z,21.19
2022-08-05T08:06:21.359Z,21.16
2022-08-05T08:07:22.898Z,21.16
2022-08-05T08:08:20.790Z,21.22
2022-08-05T08:09:20.783Z,21.19
2022-08-05T08:10:20.901Z,21.18
2022-08-05T08:11:27.795Z,21.16
2022-08-05T08:12:33.349Z,21.26
2022-08-05T08:13:22.126Z,21.18
2022-08-05T08:14:20.752Z,21.19
2022-08-05T08:15:37.255Z,21.18
2022-08-05T08:16:34.948Z,21.21
2022-08-05T08:17:21.450Z,21.16
2022-08-05T08:18:21.271Z,21.26
2022-08-05T08:20:22.989Z,21.21
2022-08-05T08:20:43.664Z,21.27
2022-08-05T08:21:20.669Z,21.18
2022-08-05T08:22:21.162Z,21.22
2022-08-05T08:24:03.403Z,21.19
2022-08-05T08:24:20.640Z,21.26
2022-08-05T08:25:27.109Z,21.24
2022-08-05T08:26:26.954Z,21.19
2022-08-05T08:27:20.610Z,21.21
2022-08-05T08:28:36.697Z,21.19
2022-08-05T08:30:03.268Z,21.21
2022-08-05T08:30:32.267Z,21.18
2022-08-05T08:31:20.580Z,21.21
2022-08-05T08:32:27.736Z,21.19
2022-08-05T08:33:20.558Z,21.22
2022-08-05T08:34:30.507Z,21.19
2022-08-05T08:35:20.540Z,21.18
2022-08-05T08:36:38.385Z,21.18
2022-08-05T08:37:20.530Z,21.26
2022-08-05T08:38:35.590Z,21.21
2022-08-05T08:39:20.535Z,21.19
2022-08-05T08:40:20.591Z,21.22
2022-08-05T08:41:20.483Z,21.18
2022-08-05T08:42:33.981Z,21.16
2022-08-05T08:45:16.212Z,21.21
2022-08-05T08:45:18.771Z,21.22
2022-08-05T08:45:27.182Z,21.18
2022-08-05T08:46:20.438Z,21.18
2022-08-05T08:47:47.307Z,21.18
2022-08-05T08:48:42.895Z,21.15
2022-08-05T08:50:22.534Z,21.18
2022-08-05T08:50:31.766Z,21.08
2022-08-05T08:52:01.718Z,21.09
2022-08-05T08:52:20.380Z,21.03
2022-08-05T08:53:20.388Z,21.11
2022-08-05T08:54:20.364Z,21.08
2022-08-05T08:55:32.140Z,21.08
2022-08-05T08:56:20.794Z,21.08
2022-08-05T08:57:20.337Z,20.98
2022-08-05T08:58:20.327Z,21.00
2022-08-05T08:59:20.949Z,21.06
2022-08-05T09:00:20.345Z,21.03
2022-08-05T09:01:20.378Z,20.98
2022-08-05T09:02:20.346Z,20.91
2022-08-05T09:03:20.954Z,20.90
2022-08-05T09:04:20.274Z,20.91
2022-08-05T09:05:38.719Z,20.90
2022-08-05T09:06:21.130Z,20.81
2022-08-05T09:07:29.150Z,20.82
2022-08-05T09:08:20.229Z,20.79
2022-08-05T09:09:20.223Z,20.73
2022-08-05T09:10:20.214Z,20.73
2022-08-05T09:11:51.249Z,20.69
2022-08-05T09:12:27.274Z,20.72
2022-08-05T09:13:20.185Z,20.72
2022-08-05T09:14:58.532Z,20.72
2022-08-05T09:15:20.356Z,20.75
2022-08-05T09:16:20.152Z,20.75
2022-08-05T09:17:42.606Z,20.69
2022-08-05T09:18:20.134Z,20.75
2022-08-05T09:19:20.142Z,20.78
2022-08-05T09:20:36.171Z,20.69
2022-08-05T09:21:20.844Z,20.83
2022-08-05T09:22:31.323Z,20.72
2022-08-05T09:23:21.456Z,20.71
2022-08-05T09:24:20.082Z,20.68
2022-08-05T09:25:24.050Z,20.75
2022-08-05T09:26:20.706Z,20.75
2022-08-05T09:28:03.915Z,20.71
2022-08-05T09:28:21.052Z,20.76
2022-08-05T09:29:20.028Z,20.71
2022-08-05T09:30:23.451Z,20.69
2022-08-05T09:31:43.427Z,20.69
2022-08-05T09:32:45.964Z,20.69
2022-08-05T09:33:19.996Z,20.71
2022-08-05T09:34:19.987Z,20.66
2022-08-05T09:35:26.901Z,20.68
2022-08-05T09:36:19.971Z,20.60
2022-08-05T09:38:17.266Z,20.64
2022-08-05T09:38:27.505Z,20.68
2022-08-05T09:39:21.993Z,20.64
2022-08-05T09:40:19.967Z,20.66
2022-08-05T09:41:19.911Z,20.60
2022-08-05T09:42:24.558Z,20.60
2022-08-05T09:43:19.898Z,20.72
2022-08-05T09:44:19.892Z,20.61
2022-08-05T09:46:06.729Z,20.63
2022-08-05T09:46:19.877Z,20.69
2022-08-05T09:47:20.674Z,20.68
2022-08-05T09:48:19.851Z,20.64
2022-08-05T09:49:20.027Z,20.61
2022-08-05T09:50:38.843Z,20.68
2022-08-05T09:51:19.829Z,20.66
2022-08-05T09:52:19.971Z,20.69
2022-08-05T09:53:26.092Z,20.63
2022-08-05T09:54:21.364Z,20.71
2022-08-05T09:55:56.818Z,20.64
2022-08-05T09:56:19.775Z,20.57
2022-08-05T09:57:20.681Z,20.58
2022-08-05T09:58:19.755Z,20.56
2022-08-05T09:59:19.747Z,20.54
2022-08-05T10:00:19.731Z,20.61
2022-08-05T10:01:31.545Z,20.54
2022-08-05T10:02:20.510Z,20.57
2022-08-05T10:03:20.300Z,20.53
2022-08-05T10:04:19.694Z,20.40
2022-08-05T10:05:19.685Z,20.35
2022-08-05T10:06:19.678Z,20.42
2022-08-05T10:08:10.366Z,20.37
2022-08-05T10:08:36.333Z,20.38
2022-08-05T10:09:27.443Z,20.37
2022-08-05T10:10:28.174Z,20.37
2022-08-05T10:11:19.634Z,20.33
2022-08-05T10:12:33.624Z,20.31
2022-08-05T10:13:19.607Z,20.31
2022-08-05T10:14:19.599Z,20.31
2022-08-05T10:15:20.007Z,20.33
2022-08-05T10:16:19.630Z,20.33
2022-08-05T10:17:38.029Z,20.38
2022-08-05T10:18:19.562Z,20.35
2022-08-05T10:19:23.627Z,20.42
2022-08-05T10:20:20.002Z,20.35
2022-08-05T10:21:19.886Z,20.35
2022-08-05T10:22:30.322Z,20.41
2022-08-05T10:23:34.485Z,20.38
2022-08-05T10:24:19.500Z,20.41
2022-08-05T10:25:19.634Z,20.40
2022-08-05T10:26:19.481Z,20.37
2022-08-05T10:27:19.616Z,20.37
2022-08-05T10:28:30.356Z,20.38
2022-08-05T10:29:23.522Z,20.37
2022-08-05T10:31:20.605Z,20.40
2022-08-05T10:32:47.699Z,20.41
2022-08-05T10:32:54.992Z,20.44
2022-08-05T10:33:19.424Z,20.44
2022-08-05T10:34:19.405Z,20.54
2022-08-05T10:35:19.406Z,20.41
2022-08-05T10:36:23.657Z,20.42
2022-08-05T10:37:19.482Z,20.38
2022-08-05T10:38:19.366Z,20.41
2022-08-05T10:39:24.455Z,20.40
2022-08-05T10:40:19.520Z,20.41
2022-08-05T10:41:23.665Z,20.41
2022-08-05T10:42:32.601Z,20.50
2022-08-05T10:43:19.327Z,20.58
2022-08-05T10:44:19.311Z,20.56
2022-08-05T10:45:24.070Z,20.57
2022-08-05T10:46:19.295Z,20.54
2022-08-05T10:47:26.114Z,20.68
2022-08-05T10:48:29.779Z,20.64
2022-08-05T10:49:27.613Z,20.71
2022-08-05T10:50:32.863Z,20.75
2022-08-05T10:51:21.845Z,20.63
2022-08-05T10:52:19.683Z,20.71
2022-08-05T10:53:19.226Z,20.72
2022-08-05T10:54:28.126Z,20.72
2022-08-05T10:55:19.214Z,20.69
2022-08-05T10:56:25.245Z,20.72
2022-08-05T10:57:19.272Z,20.69
2022-08-05T10:58:19.182Z,20.71
2022-08-05T11:00:03.523Z,20.79
2022-08-05T11:00:20.421Z,20.82
2022-08-05T11:01:28.323Z,20.88
2022-08-05T11:02:34.779Z,20.82
2022-08-05T11:03:25.599Z,20.90
2022-08-05T11:04:19.120Z,20.93
2022-08-05T11:05:19.118Z,21.03
2022-08-05T11:06:19.103Z,20.93
2022-08-05T11:07:19.149Z,20.98
2022-08-05T11:08:36.732Z,21.09
2022-08-05T11:09:24.514Z,21.01
2022-08-05T11:10:19.070Z,21.21
2022-08-05T11:11:19.058Z,21.27
2022-08-05T11:12:19.148Z,21.21
2022-08-05T11:13:19.042Z,21.21
2022-08-05T11:14:19.033Z,21.24
2022-08-05T11:15:19.962Z,21.33
2022-08-05T11:16:19.014Z,21.33
2022-08-05T11:17:20.604Z,21.36
2022-08-05T11:18:18.997Z,21.46
2022-08-05T11:20:10.166Z,21.45
2022-08-05T11:20:19.059Z,21.46
2022-08-05T11:21:18.973Z,21.48
2022-08-05T11:22:19.061Z,21.55
2022-08-05T11:23:18.951Z,21.59
2022-08-05T11:24:30.186Z,21.67
2022-08-05T11:26:04.282Z,21.66
2022-08-05T11:26:28.972Z,21.68
2022-08-05T11:27:19.118Z,21.67
2022-08-05T11:28:18.903Z,21.64
2022-08-05T11:29:18.897Z,21.68
2022-08-05T11:30:18.888Z,21.83
2022-08-05T11:31:54.013Z,21.89
2022-08-05T11:32:18.990Z,21.90
2022-08-05T11:33:21.106Z,21.86
2022-08-05T11:34:22.729Z,21.90
2022-08-05T11:35:18.846Z,21.94
2022-08-05T11:36:34.617Z,22.02
2022-08-05T11:38:28.356Z,22.11
2022-08-05T11:38:29.411Z,22.15
2022-08-05T11:39:18.832Z,22.15
2022-08-05T11:40:18.805Z,22.35
2022-08-05T11:41:54.729Z,22.46
2022-08-05T11:42:18.878Z,22.51
2022-08-05T11:43:18.779Z,22.57
2022-08-05T11:44:21.793Z,22.85
2022-08-05T11:45:23.279Z,22.88
2022-08-05T11:46:32.350Z,23.03
2022-08-05T11:47:21.943Z,23.22
2022-08-05T11:48:19.080Z,23.22
2022-08-05T11:49:18.721Z,23.25
2022-08-05T11:50:18.717Z,23.29
2022-08-05T11:51:43.705Z,23.47
2022-08-05T11:52:18.695Z,23.56
2022-08-05T11:53:18.688Z,23.52
2022-08-05T11:54:18.734Z,23.59
2022-08-05T11:55:18.678Z,23.62
2022-08-05T11:56:18.667Z,23.74
2022-08-05T11:57:25.425Z,23.92
2022-08-05T11:58:18.654Z,23.97
2022-08-05T11:59:21.163Z,23.96
2022-08-05T12:00:18.688Z,24.12
2022-08-05T12:01:19.009Z,24.11
2022-08-05T12:02:24.295Z,24.14
2022-08-05T12:03:29.391Z,24.24
2022-08-05T12:04:18.604Z,24.19
2022-08-05T12:05:18.797Z,24.29
2022-08-05T12:06:18.595Z,24.27
2022-08-05T12:07:18.588Z,24.33
2022-08-05T12:08:18.680Z,24.42
2022-08-05T12:09:20.129Z,24.45
2022-08-05T12:10:18.563Z,24.51
2022-08-05T12:11:20.274Z,24.75
2022-08-05T12:12:18.551Z,24.67
2022-08-05T12:13:47.857Z,24.83
2022-08-05T12:14:18.546Z,24.77
2022-08-05T12:15:18.537Z,24.83
2022-08-05T12:16:19.111Z,24.94
2022-08-05T12:18:03.311Z,24.87
2022-08-05T12:18:18.507Z,24.87
2022-08-05T12:20:26.159Z,24.93
2022-08-05T12:20:28.904Z,24.86
2022-08-05T12:21:18.494Z,24.94
2022-08-05T12:22:20.138Z,25.02
2022-08-05T12:23:18.476Z,25.04
2022-08-05T12:24:18.473Z,24.94
2022-08-05T12:25:18.464Z,25.02
2022-08-05T12:26:18.454Z,25.12
2022-08-05T12:27:21.522Z,25.16
2022-08-05T12:28:18.445Z,25.30
2022-08-05T12:29:23.111Z,25.42
2022-08-05T12:30:18.437Z,25.35
2022-08-05T12:31:28.030Z,25.29
2022-08-05T12:32:18.430Z,25.38
2022-08-05T12:33:27.344Z,25.36
2022-08-05T12:34:20.511Z,25.36
2022-08-05T12:35:21.871Z,25.46
2022-08-05T12:36:18.421Z,25.49
2022-08-05T12:37:21.761Z,25.51
2022-08-05T12:38:18.780Z,25.45
2022-08-05T12:39:18.405Z,25.51
2022-08-05T12:40:26.326Z,25.56
2022-08-05T12:41:18.363Z,25.72
2022-08-05T12:42:18.357Z,25.75
2022-08-05T12:43:21.137Z,25.74
2022-08-05T12:44:32.776Z,25.71
2022-08-05T12:45:18.335Z,25.71
2022-08-05T12:46:18.333Z,25.86
2022-08-05T12:47:18.336Z,25.85
2022-08-05T12:48:27.651Z,26.00
2022-08-05T12:49:19.078Z,26.04
2022-08-05T12:50:19.768Z,26.09
2022-08-05T12:51:21.742Z,26.00
2022-08-05T12:52:25.558Z,26.08